createdAt,value
2022-08-26T00:00:24.489Z,5.43
2022-08-26T00:02:52.927Z,9.60
2022-08-26T00:05:22.883Z,6.73
2022-08-26T00:07:52.790Z,9.00
2022-08-26T00:10:22.012Z,5.67
2022-08-26T00:12:54.385Z,5.63
2022-08-26T00:15:24.051Z,7.70
2022-08-26T00:17:54.081Z,6.57
2022-08-26T00:20:28.138Z,6.40
2022-08-26T00:22:56.606Z,5.93
2022-08-26T00:25:25.464Z,5.93
2022-08-26T00:27:54.093Z,7.07
2022-08-26T00:30:27.984Z,7.70
2022-08-26T00:32:57.160Z,5.70
2022-08-26T00:35:28.987Z,5.43
2022-08-26T00:37:58.948Z,5.63
2022-08-26T00:40:33.246Z,6.40
2022-08-26T00:43:02.405Z,5.80
2022-08-26T00:45:43.611Z,5.50
2022-08-26T00:48:13.507Z,6.87
2022-08-26T00:50:50.215Z,6.00
2022-08-26T00:53:25.966Z,6.30
2022-08-26T00:56:00.862Z,6.83
2022-08-26T00:58:33.991Z,6.60
2022-08-26T01:01:02.757Z,6.33
2022-08-26T01:03:35.090Z,6.87
2022-08-26T01:06:12.562Z,7.03
2022-08-26T01:08:42.201Z,6.60
2022-08-26T01:11:12.185Z,6.67
2022-08-26T01:13:41.505Z,6.63
2022-08-26T01:16:14.750Z,6.17
2022-08-26T01:18:45.015Z,9.00
2022-08-26T01:21:30.989Z,6.53
2022-08-26T01:24:01.403Z,6.90
2022-08-26T01:26:34.410Z,5.70
2022-08-26T01:29:07.830Z,5.93
2022-08-26T01:31:41.809Z,6.23
2022-08-26T01:34:17.555Z,6.90
2022-08-26T01:36:51.054Z,12.87
2022-08-26T01:39:21.954Z,6.73
2022-08-26T01:41:54.409Z,6.23
2022-08-26T01:44:27.491Z,7.43
2022-08-26T01:46:57.233Z,9.40
2022-08-26T01:49:28.452Z,8.67
2022-08-26T01:52:00.588Z,7.57
2022-08-26T01:54:30.447Z,7.07
2022-08-26T01:56:59.912Z,6.73
2022-08-26T01:59:29.169Z,7.67
2022-08-26T02:01:57.997Z,7.00
2022-08-26T02:04:33.146Z,6.60
2022-08-26T02:07:06.167Z,6.20
2022-08-26T02:09:41.370Z,6.73
2022-08-26T02:12:12.033Z,6.67
2022-08-26T02:14:46.764Z,6.60
2022-08-26T02:17:15.897Z,6.03
2022-08-26T02:19:51.324Z,7.00
2022-08-26T02:22:22.522Z,6.87
2022-08-26T02:24:57.731Z,7.90
2022-08-26T02:27:32.245Z,7.37
2022-08-26T02:30:10.147Z,6.70
2022-08-26T02:32:40.085Z,7.70
2022-08-26T02:35:09.986Z,7.57
2022-08-26T02:37:38.489Z,8.10
2022-08-26T02:40:15.694Z,7.47
2022-08-26T02:42:44.117Z,9.10
2022-08-26T02:45:12.990Z,7.33
2022-08-26T02:47:45.146Z,7.17
2022-08-26T02:50:15.726Z,8.80
2022-08-26T02:52:44.979Z,8.30
2022-08-26T02:55:15.047Z,7.90
2022-08-26T02:57:43.651Z,8.00
2022-08-26T03:00:15.411Z,13.20
2022-08-26T03:02:43.848Z,8.33
2022-08-26T03:05:13.434Z,7.90
2022-08-26T03:07:41.812Z,7.50
2022-08-26T03:10:12.609Z,7.70
2022-08-26T03:12:42.429Z,8.23
2022-08-26T03:15:17.864Z,8.27
2022-08-26T03:17:49.079Z,10.70
2022-08-26T03:20:19.883Z,8.23
2022-08-26T03:22:51.417Z,8.43
2022-08-26T03:25:20.634Z,8.20
2022-08-26T03:27:51.496Z,8.40
2022-08-26T03:30:38.084Z,8.50
2022-08-26T03:33:07.684Z,7.60
2022-08-26T03:35:36.683Z,8.10
2022-08-26T03:38:08.242Z,8.27
2022-08-26T03:40:38.745Z,9.13
2022-08-26T03:43:11.881Z,8.70
2022-08-26T03:45:40.927Z,10.83
2022-08-26T03:48:11.712Z,9.93
2022-08-26T03:50:40.630Z,7.70
2022-08-26T03:53:13.206Z,7.90
2022-08-26T03:55:43.414Z,10.40
2022-08-26T03:58:14.427Z,9.10
2022-08-26T04:00:43.113Z,9.10
2022-08-26T04:03:14.727Z,7.50
2022-08-26T04:05:46.518Z,7.23
2022-08-26T04:08:14.996Z,8.00
2022-08-26T04:10:43.685Z,8.13
2022-08-26T04:13:13.830Z,10.20
2022-08-26T04:15:42.319Z,11.10
2022-08-26T04:18:10.740Z,8.50
2022-08-26T04:20:39.242Z,10.03
2022-08-26T04:23:07.833Z,8.17
2022-08-26T04:25:36.328Z,8.43
2022-08-26T04:28:08.991Z,8.43
2022-08-26T04:30:40.659Z,11.37
2022-08-26T04:33:13.491Z,8.20
2022-08-26T04:35:44.057Z,9.60
2022-08-26T04:38:12.633Z,7.60
2022-08-26T04:40:46.863Z,8.50
2022-08-26T04:43:15.739Z,7.97
2022-08-26T04:45:45.581Z,9.07
2022-08-26T04:48:16.719Z,7.93
2022-08-26T04:50:45.431Z,8.00
2022-08-26T04:53:18.191Z,11.03
2022-08-26T04:55:46.875Z,8.83
2022-08-26T04:58:18.282Z,10.27
2022-08-26T05:00:50.353Z,9.20
2022-08-26T05:03:19.846Z,9.13
2022-08-26T05:05:50.953Z,8.27
2022-08-26T05:08:22.245Z,9.20
2022-08-26T05:10:55.971Z,9.10
2022-08-26T05:13:28.042Z,9.43
2022-08-26T05:16:01.274Z,8.83
2022-08-26T05:18:30.022Z,9.00
2022-08-26T05:20:58.814Z,8.97
2022-08-26T05:23:27.296Z,10.60
2022-08-26T05:25:59.185Z,10.37
2022-08-26T05:28:29.675Z,10.03
2022-08-26T05:30:59.560Z,9.43
2022-08-26T05:33:29.358Z,12.20
2022-08-26T05:35:57.800Z,10.03
2022-08-26T05:38:30.291Z,9.47
2022-08-26T05:40:58.995Z,10.27
2022-08-26T05:43:27.861Z,9.40
2022-08-26T05:45:56.406Z,9.73
2022-08-26T05:48:26.153Z,14.67
2022-08-26T05:50:55.106Z,9.30
2022-08-26T05:53:26.254Z,10.60
2022-08-26T05:55:58.128Z,9.80
2022-08-26T05:58:27.082Z,11.53
2022-08-26T06:01:01.784Z,10.47
2022-08-26T06:03:34.565Z,13.37
2022-08-26T06:06:06.770Z,11.03
2022-08-26T06:08:36.096Z,8.70
2022-08-26T06:11:08.125Z,9.80
2022-08-26T06:13:48.425Z,10.43
2022-08-26T06:16:19.477Z,12.70
2022-08-26T06:18:50.661Z,11.97
2022-08-26T06:21:23.202Z,9.13
2022-08-26T06:24:14.399Z,10.53
2022-08-26T06:26:50.392Z,12.90
2022-08-26T06:29:24.679Z,9.67
2022-08-26T06:31:54.057Z,12.67
2022-08-26T06:34:29.909Z,10.60
2022-08-26T06:37:02.485Z,13.13
2022-08-26T06:39:32.265Z,11.20
2022-08-26T06:42:01.218Z,10.30
2022-08-26T06:44:32.464Z,10.10
2022-08-26T06:47:00.972Z,12.87
2022-08-26T06:49:30.811Z,10.17
2022-08-26T06:51:59.221Z,10.57
2022-08-26T06:54:28.809Z,9.83
2022-08-26T06:56:57.550Z,12.50
2022-08-26T06:59:27.185Z,16.97
2022-08-26T07:01:56.222Z,10.97
2022-08-26T07:04:25.062Z,13.10
2022-08-26T07:06:58.033Z,9.30
2022-08-26T07:09:30.338Z,9.00
2022-08-26T07:11:59.232Z,11.53
2022-08-26T07:14:27.726Z,11.13
2022-08-26T07:16:56.220Z,10.17
2022-08-26T07:19:30.368Z,10.20
2022-08-26T07:22:03.348Z,8.97
2022-08-26T07:24:33.146Z,10.43
2022-08-26T07:27:07.227Z,10.13
2022-08-26T07:29:39.453Z,10.13
2022-08-26T07:32:09.822Z,12.67
2022-08-26T07:34:39.697Z,9.20
2022-08-26T07:37:12.297Z,13.10
2022-08-26T07:39:41.686Z,9.73
2022-08-26T07:42:14.386Z,10.37
2022-08-26T07:44:44.498Z,9.40
2022-08-26T07:47:25.898Z,13.43
2022-08-26T07:49:56.837Z,8.50
2022-08-26T07:52:29.870Z,10.20
2022-08-26T07:55:01.520Z,9.43
2022-08-26T07:57:31.274Z,10.43
2022-08-26T08:00:00.707Z,9.10
2022-08-26T08:02:30.800Z,8.57
2022-08-26T08:04:59.844Z,10.53
2022-08-26T08:07:44.240Z,10.60
2022-08-26T08:10:19.137Z,10.00
2022-08-26T08:12:51.204Z,9.07
2022-08-26T08:15:24.233Z,8.33
2022-08-26T08:17:54.055Z,9.47
2022-08-26T08:20:27.154Z,8.93
2022-08-26T08:22:58.020Z,9.80
2022-08-26T08:25:26.443Z,14.10
2022-08-26T08:27:54.807Z,8.80
2022-08-26T08:30:24.467Z,9.63
2022-08-26T08:32:53.804Z,8.00
2022-08-26T08:35:23.996Z,9.20
2022-08-26T08:37:56.584Z,8.67
2022-08-26T08:40:28.051Z,10.47
2022-08-26T08:43:06.103Z,8.67
2022-08-26T08:45:38.502Z,9.23
2022-08-26T08:48:20.747Z,8.93
2022-08-26T08:51:05.148Z,13.53
2022-08-26T08:53:38.594Z,8.70
2022-08-26T08:56:16.261Z,10.20
2022-08-26T08:58:57.289Z,10.33
2022-08-26T09:01:52.266Z,8.93
2022-08-26T09:04:57.421Z,12.00
2022-08-26T09:07:34.527Z,9.17
2022-08-26T09:10:25.793Z,13.67
2022-08-26T09:12:54.553Z,12.50
2022-08-26T09:15:30.460Z,12.10
2022-08-26T09:18:09.142Z,11.97
2022-08-26T09:20:53.759Z,9.30
2022-08-26T09:23:22.169Z,13.63
2022-08-26T09:26:00.811Z,9.63
2022-08-26T09:28:32.431Z,11.03
2022-08-26T09:31:11.769Z,10.03
2022-08-26T09:33:42.193Z,9.87
2022-08-26T09:36:24.833Z,10.13
2022-08-26T09:38:54.348Z,9.80
2022-08-26T09:41:32.170Z,9.07
2022-08-26T09:44:14.529Z,9.67
2022-08-26T09:46:52.703Z,8.87
2022-08-26T09:49:36.023Z,9.83
2022-08-26T09:52:12.766Z,9.13
2022-08-26T09:54:42.089Z,9.27
2022-08-26T09:57:27.537Z,10.67
2022-08-26T09:59:57.811Z,10.17
2022-08-26T10:02:41.643Z,9.67
2022-08-26T10:05:28.940Z,15.70
2022-08-26T10:08:00.230Z,10.87
2022-08-26T10:10:34.799Z,14.37
2022-08-26T10:13:11.602Z,13.00
2022-08-26T10:15:50.672Z,9.90
2022-08-26T10:18:25.140Z,11.40
2022-08-26T10:21:07.288Z,11.47
2022-08-26T10:23:43.013Z,11.63
2022-08-26T10:26:17.692Z,9.53
2022-08-26T10:28:55.109Z,13.73
2022-08-26T10:31:30.419Z,10.20
2022-08-26T10:34:09.821Z,9.90
2022-08-26T10:37:15.883Z,9.37
2022-08-26T10:39:57.276Z,9.40
2022-08-26T10:42:35.275Z,10.40
2022-08-26T10:45:11.949Z,9.23
2022-08-26T10:47:49.986Z,10.67
2022-08-26T10:50:19.986Z,10.80
2022-08-26T10:53:00.217Z,9.00
2022-08-26T10:55:37.609Z,8.70
2022-08-26T10:58:26.165Z,9.23
2022-08-26T11:01:23.972Z,13.73
2022-08-26T11:04:02.941Z,8.57
2022-08-26T11:06:32.755Z,11.37
2022-08-26T11:09:02.882Z,12.23
2022-08-26T11:11:50.779Z,12.57
2022-08-26T11:14:53.291Z,9.90
2022-08-26T11:18:00.731Z,10.37
2022-08-26T11:20:41.734Z,10.87
2022-08-26T11:23:50.471Z,8.80
2022-08-26T11:26:36.319Z,10.43
2022-08-26T11:29:13.279Z,9.90
2022-08-26T11:31:57.249Z,12.63
2022-08-26T11:34:57.866Z,12.30
2022-08-26T11:37:34.320Z,13.20
2022-08-26T11:40:09.123Z,13.27
2022-08-26T11:42:42.742Z,16.90
2022-08-26T11:45:25.209Z,14.40
2022-08-26T11:47:54.703Z,13.20
2022-08-26T11:50:28.137Z,14.07
2022-08-26T11:53:02.335Z,16.10
2022-08-26T11:55:32.688Z,14.23
2022-08-26T11:58:04.821Z,16.27
2022-08-26T12:00:48.893Z,15.87
2022-08-26T12:03:21.533Z,14.87
2022-08-26T12:05:54.598Z,14.47
2022-08-26T12:08:27.902Z,14.23
2022-08-26T12:11:05.375Z,14.17
2022-08-26T12:13:38.974Z,14.13
2022-08-26T12:16:08.558Z,16.23
2022-08-26T12:18:40.156Z,15.03
2022-08-26T12:21:22.241Z,15.43
2022-08-26T12:23:55.930Z,16.53
2022-08-26T12:26:28.575Z,16.47
2022-08-26T12:29:00.279Z,15.67
2022-08-26T12:31:34.649Z,16.70
2022-08-26T12:34:07.088Z,14.47
2022-08-26T12:36:50.339Z,15.17
2022-08-26T12:39:29.649Z,14.43
2022-08-26T12:41:59.877Z,14.20
2022-08-26T12:44:39.205Z,14.10
2022-08-26T12:47:30.875Z,16.23
2022-08-26T12:50:11.612Z,14.90
2022-08-26T12:52:53.848Z,15.93
2022-08-26T12:55:25.825Z,15.77
2022-08-26T12:58:19.749Z,15.47
2022-08-26T13:00:50.162Z,16.07
2022-08-26T13:03:46.566Z,14.20
2022-08-26T13:06:29.733Z,14.77
2022-08-26T13:09:02.241Z,13.97
2022-08-26T13:11:34.786Z,12.90
2022-08-26T13:14:08.778Z,13.43
2022-08-26T13:16:39.617Z,13.83
2022-08-26T13:19:10.754Z,14.03
2022-08-26T13:21:47.760Z,14.47
2022-08-26T13:24:21.276Z,14.37
2022-08-26T13:26:50.769Z,13.07
2022-08-26T13:29:20.365Z,14.63
2022-08-26T13:31:49.329Z,13.60
2022-08-26T13:34:20.638Z,15.57
2022-08-26T13:36:50.397Z,14.53
2022-08-26T13:39:20.691Z,13.93
2022-08-26T13:41:49.879Z,14.23
2022-08-26T13:44:18.423Z,13.60
2022-08-26T13:46:47.030Z,14.90
2022-08-26T13:49:15.894Z,12.13
2022-08-26T13:51:44.292Z,13.30
2022-08-26T13:54:12.769Z,14.83
2022-08-26T13:56:42.518Z,14.87
2022-08-26T13:59:11.022Z,16.27
2022-08-26T14:01:40.167Z,15.47
2022-08-26T14:04:08.737Z,16.90
2022-08-26T14:06:37.429Z,17.00
2022-08-26T14:09:06.505Z,17.33
2022-08-26T14:11:53.929Z,18.60
2022-08-26T14:14:25.038Z,15.47
2022-08-26T14:16:59.379Z,18.13
2022-08-26T14:19:30.420Z,18.90
2022-08-26T14:22:00.940Z,16.93
2022-08-26T14:24:30.229Z,16.40
2022-08-26T14:26:58.634Z,18.17
2022-08-26T14:29:28.468Z,14.57
2022-08-26T14:31:58.684Z,16.30
2022-08-26T14:34:27.621Z,16.57
2022-08-26T14:36:56.352Z,14.67
2022-08-26T14:39:24.735Z,15.50
2022-08-26T14:41:57.071Z,14.30
2022-08-26T14:44:32.001Z,15.50
2022-08-26T14:47:03.536Z,14.17
2022-08-26T14:49:32.224Z,14.00
2022-08-26T14:52:01.073Z,15.20
2022-08-26T14:54:29.465Z,13.50
2022-08-26T14:57:02.128Z,11.97
2022-08-26T14:59:34.919Z,11.07
2022-08-26T15:02:04.631Z,11.47
2022-08-26T15:04:33.478Z,11.40
2022-08-26T15:07:03.261Z,10.03
2022-08-26T15:09:35.450Z,11.27
2022-08-26T15:12:05.087Z,11.07
2022-08-26T15:14:34.913Z,10.80
2022-08-26T15:17:03.375Z,11.20
2022-08-26T15:19:31.832Z,10.67
2022-08-26T15:22:00.283Z,11.63
2022-08-26T15:24:29.659Z,12.10
2022-08-26T15:26:59.000Z,13.33
2022-08-26T15:29:27.569Z,14.73
2022-08-26T15:31:57.661Z,15.60
2022-08-26T15:34:26.895Z,14.43
2022-08-26T15:36:55.942Z,15.00
2022-08-26T15:39:24.813Z,16.43
2022-08-26T15:41:53.221Z,16.80
2022-08-26T15:44:21.707Z,17.27
2022-08-26T15:46:53.337Z,16.70
2022-08-26T15:49:26.936Z,18.27
2022-08-26T15:51:55.666Z,18.53
2022-08-26T15:54:25.126Z,17.50
2022-08-26T15:56:53.817Z,18.60
2022-08-26T15:59:23.327Z,18.23
2022-08-26T16:01:52.257Z,21.07
2022-08-26T16:04:21.496Z,22.57
2022-08-26T16:06:52.206Z,19.23
2022-08-26T16:09:24.228Z,20.37
2022-08-26T16:11:53.010Z,18.67
2022-08-26T16:14:21.733Z,21.27
2022-08-26T16:16:50.880Z,19.73
2022-08-26T16:19:19.315Z,18.63
2022-08-26T16:21:48.059Z,18.23
2022-08-26T16:24:18.281Z,18.93
2022-08-26T16:26:46.656Z,20.83
2022-08-26T16:29:17.722Z,20.60
2022-08-26T16:31:47.640Z,19.07
2022-08-26T16:34:16.029Z,19.43
2022-08-26T16:36:44.498Z,21.97
2022-08-26T16:39:13.641Z,22.53
2022-08-26T16:41:44.228Z,21.40
2022-08-26T16:44:12.540Z,22.37
2022-08-26T16:46:41.202Z,23.90
2022-08-26T16:49:09.736Z,24.83
2022-08-26T16:51:38.579Z,23.00
2022-08-26T16:54:09.163Z,26.53
2022-08-26T16:56:38.789Z,24.43
2022-08-26T16:59:11.680Z,23.37
2022-08-26T17:01:40.161Z,25.30
2022-08-26T17:04:08.561Z,27.47
2022-08-26T17:06:38.218Z,28.57
2022-08-26T17:09:07.296Z,31.67
2022-08-26T17:11:36.415Z,32.83
2022-08-26T17:14:06.255Z,34.30
2022-08-26T17:16:36.221Z,34.63
2022-08-26T17:19:06.295Z,34.17
2022-08-26T17:21:36.668Z,37.40
2022-08-26T17:24:06.843Z,35.10
2022-08-26T17:26:37.019Z,35.07
2022-08-26T17:29:06.226Z,36.10
2022-08-26T17:31:35.960Z,36.10
2022-08-26T17:34:05.092Z,36.73
2022-08-26T17:36:33.909Z,37.03
2022-08-26T17:39:02.373Z,36.80
2022-08-26T17:41:30.801Z,37.87
2022-08-26T17:43:59.211Z,35.60
2022-08-26T17:46:27.961Z,36.10
2022-08-26T17:48:57.879Z,37.43
2022-08-26T17:51:26.992Z,36.20
2022-08-26T17:53:55.755Z,35.70
2022-08-26T17:56:27.325Z,35.50
2022-08-26T17:59:03.506Z,36.57
2022-08-26T18:01:32.806Z,34.90
2022-08-26T18:04:04.477Z,32.27
2022-08-26T18:06:34.353Z,32.07
2022-08-26T18:09:02.832Z,32.87
2022-08-26T18:11:32.562Z,32.67
2022-08-26T18:14:01.656Z,32.57
2022-08-26T18:16:34.141Z,31.07
2022-08-26T18:19:03.891Z,30.27
2022-08-26T18:21:32.371Z,28.83
2022-08-26T18:24:00.966Z,28.97
2022-08-26T18:26:33.109Z,29.93
2022-08-26T18:29:02.015Z,28.57
2022-08-26T18:31:31.412Z,26.73
2022-08-26T18:34:01.623Z,26.03
2022-08-26T18:36:33.835Z,26.07
2022-08-26T18:39:02.994Z,26.03
2022-08-26T18:41:34.024Z,24.37
2022-08-26T18:44:02.417Z,26.73
2022-08-26T18:46:30.844Z,25.87
2022-08-26T18:48:59.831Z,24.33
2022-08-26T18:51:32.930Z,24.90
2022-08-26T18:54:04.077Z,24.57
2022-08-26T18:56:33.782Z,24.77
2022-08-26T18:59:02.660Z,26.47
2022-08-26T19:01:32.266Z,27.63
2022-08-26T19:04:02.823Z,25.70
2022-08-26T19:06:35.477Z,26.70
2022-08-26T19:09:06.772Z,26.67
2022-08-26T19:11:42.314Z,25.43
2022-08-26T19:14:16.704Z,24.70
2022-08-26T19:16:48.670Z,26.97
2022-08-26T19:19:17.725Z,25.73
2022-08-26T19:21:47.843Z,25.23
2022-08-26T19:24:18.972Z,24.60
2022-08-26T19:26:49.457Z,26.40
2022-08-26T19:29:20.348Z,25.00
2022-08-26T19:31:48.913Z,23.93
2022-08-26T19:34:18.330Z,25.57
2022-08-26T19:36:53.100Z,24.50
2022-08-26T19:39:21.765Z,24.43
2022-08-26T19:41:50.381Z,24.67
2022-08-26T19:44:35.465Z,24.03
2022-08-26T19:47:04.733Z,22.03
2022-08-26T19:49:33.474Z,23.57
2022-08-26T19:52:03.558Z,21.43
2022-08-26T19:54:31.990Z,22.30
2022-08-26T19:57:00.443Z,22.23
2022-08-26T19:59:29.053Z,22.27
2022-08-26T20:02:01.490Z,23.00
2022-08-26T20:04:30.723Z,23.33
2022-08-26T20:07:00.538Z,23.13
2022-08-26T20:09:31.232Z,21.53
2022-08-26T20:11:59.960Z,21.93
2022-08-26T20:14:29.858Z,22.13
2022-08-26T20:16:58.511Z,23.23
2022-08-26T20:19:44.719Z,21.47
2022-08-26T20:22:14.165Z,21.20
2022-08-26T20:24:45.430Z,22.10
2022-08-26T20:27:15.405Z,22.20
2022-08-26T20:29:43.949Z,22.00
2022-08-26T20:32:13.006Z,21.00
2022-08-26T20:34:41.724Z,20.77
2022-08-26T20:37:10.180Z,23.80
2022-08-26T20:39:38.724Z,22.13
2022-08-26T20:42:19.926Z,20.57
2022-08-26T20:44:51.349Z,22.37
2022-08-26T20:47:23.764Z,22.03
2022-08-26T20:49:52.624Z,22.50
2022-08-26T20:52:21.693Z,21.80
2022-08-26T20:54:50.104Z,22.73
2022-08-26T20:57:19.948Z,21.33
2022-08-26T20:59:48.529Z,22.87
2022-08-26T21:02:17.100Z,22.53
2022-08-26T21:04:45.581Z,21.40
2022-08-26T21:07:14.075Z,21.07
2022-08-26T21:09:42.689Z,22.03
2022-08-26T21:12:12.332Z,22.23
2022-08-26T21:14:43.979Z,22.53
2022-08-26T21:17:15.218Z,21.87
2022-08-26T21:19:44.443Z,20.00
2022-08-26T21:22:12.899Z,21.03
2022-08-26T21:24:41.274Z,21.60
2022-08-26T21:27:09.728Z,21.57
2022-08-26T21:29:38.236Z,20.10
2022-08-26T21:32:08.355Z,20.90
2022-08-26T21:34:40.736Z,22.57
2022-08-26T21:37:16.457Z,21.03
2022-08-26T21:39:45.573Z,20.93
2022-08-26T21:42:14.098Z,20.97
2022-08-26T21:44:42.752Z,20.47
2022-08-26T21:47:14.326Z,20.60
2022-08-26T21:49:44.070Z,20.63
2022-08-26T21:52:13.091Z,19.50
2022-08-26T21:54:41.571Z,18.80
2022-08-26T21:57:18.337Z,18.57
2022-08-26T21:59:47.159Z,18.43
2022-08-26T22:02:17.096Z,19.23
2022-08-26T22:04:48.840Z,19.87
2022-08-26T22:07:19.172Z,18.93
2022-08-26T22:09:48.647Z,18.90
2022-08-26T22:12:18.315Z,18.87
2022-08-26T22:14:47.069Z,17.53
2022-08-26T22:17:17.012Z,18.60
2022-08-26T22:19:46.125Z,18.33
2022-08-26T22:22:15.857Z,16.63
2022-08-26T22:24:44.379Z,16.97
2022-08-26T22:27:13.357Z,17.67
2022-08-26T22:29:42.312Z,18.50
2022-08-26T22:32:11.075Z,16.67
2022-08-26T22:34:41.883Z,17.50
2022-08-26T22:37:10.337Z,15.93
2022-08-26T22:39:39.189Z,17.23
2022-08-26T22:42:07.744Z,15.90
2022-08-26T22:44:37.027Z,16.60
2022-08-26T22:47:05.675Z,16.43
2022-08-26T22:49:33.988Z,14.90
2022-08-26T22:52:04.659Z,15.60
2022-08-26T22:54:33.094Z,14.90
2022-08-26T22:57:01.713Z,16.93
2022-08-26T22:59:30.117Z,17.33
2022-08-26T23:01:58.459Z,15.30
2022-08-26T23:04:26.895Z,13.97
2022-08-26T23:06:55.544Z,16.13
2022-08-26T23:09:25.316Z,15.60
2022-08-26T23:11:55.925Z,14.57
2022-08-26T23:14:26.183Z,15.30
2022-08-26T23:16:54.836Z,14.77
2022-08-26T23:19:24.471Z,15.17
2022-08-26T23:21:53.111Z,14.60
2022-08-26T23:24:22.059Z,14.73
2022-08-26T23:26:51.788Z,14.80
2022-08-26T23:29:20.198Z,15.03
2022-08-26T23:31:48.693Z,15.23
2022-08-26T23:34:34.493Z,14.77
2022-08-26T23:37:03.225Z,14.93
2022-08-26T23:39:35.301Z,15.13
2022-08-26T23:42:06.567Z,15.03
2022-08-26T23:44:35.341Z,14.87
2022-08-26T23:47:04.868Z,14.60
2022-08-26T23:49:34.201Z,15.80
2022-08-26T23:52:20.886Z,16.00
2022-08-26T23:54:50.951Z,14.70
2022-08-26T23:57:23.181Z,14.07
2022-08-26T23:59:53.099Z,19.10
